VQTU weather

Thimphu Heliport
Thimphu, Thimphu, Bhutan

Public forecast

Using degrees Celsius for public forecast. Weather courtesy of forecast.io.

Closest aviation weather report (METAR) to Thimphu Heliport

Closest report is Paro Airport, 12.6 nm (23.4 km) WSW. Retrieved 2020/08/07 11:00 UTC (2 hours ago):

VQPR 071100Z 15015KT 9999 SCT030 FEW120 28/15 Q1013

Closest aviation forecast (TAF) to Thimphu Heliport

Closest forecast is Bagdogra Airport, 84.7 nm (156.8 km) WSW. Retrieved 2020/08/07 12:30 UTC (13 minutes ago):

TAF VEBD 070930Z 0712/0724 07005KT 6000 SCT025 SCT090 TEMPO 0713/0715 TS SCT025 FEW030TCU/CB SCT090 TEMPO 0718/0720 2000 TSRA SCT020 FEW030TCU/CB BKN090TAF VABJ 070930Z 0712/0724 22010G20KT 5000 RABR SCT020 SCT030 BKN080 BECMG FM 0715/0717 18010KT 6000 SCT020 SCT030 BKN080 TEMPO 0713/0715 20010G20KT 5000 TSRA SCT015 SCT020 FEWCB030 BKN080